Time,TemperatureF,DewpointF,PressureIn,WindDirection,WindDirectionDegrees,WindSpeedMPH,WindSpeedGustMPH,Humidity,HourlyPrecipIn,Conditions,Clouds,dailyrainin,SoftwareType,DateUTC
2013-03-26 00:02:00,39.0,36.0,30.33,NNW,331,0.0,0.0,89,0.00,,,0.00,,2013-03-26 05:02:00,
2013-03-26 00:12:00,39.0,36.0,30.33,NNW,331,0.0,0.0,89,0.00,,,0.00,,2013-03-26 05:12:00,
2013-03-26 00:22:00,38.0,35.0,30.33,NNW,331,0.0,0.0,89,0.00,,,0.00,,2013-03-26 05:22:00,
2013-03-26 00:32:00,38.0,35.0,30.34,NNW,331,0.0,0.0,89,0.00,,,0.00,,2013-03-26 05:32:00,
2013-03-26 00:42:00,38.0,35.0,30.34,NNW,331,0.0,0.0,89,0.00,,,0.00,,2013-03-26 05:42:00,
2013-03-26 00:52:00,38.0,35.0,30.33,NNW,331,0.0,0.0,89,0.00,,,0.00,,2013-03-26 05:52:00,
2013-03-26 01:02:00,37.0,34.0,30.34,NNW,331,0.0,0.0,89,0.00,,,0.00,,2013-03-26 06:02:00,
2013-03-26 01:12:00,37.0,34.0,30.34,NNW,331,0.0,0.0,89,0.00,,,0.00,,2013-03-26 06:12:00,
2013-03-26 01:22:00,37.0,34.0,30.35,NNW,331,0.0,0.0,89,0.00,,,0.00,,2013-03-26 06:22:00,
2013-03-26 01:32:00,37.0,34.0,30.35,NNW,331,0.0,0.0,89,0.00,,,0.00,,2013-03-26 06:32:00,
2013-03-26 01:42:00,37.0,34.0,30.35,NNW,331,0.0,0.0,89,0.00,,,0.00,,2013-03-26 06:42:00,
2013-03-26 01:52:00,37.0,34.0,30.35,NNW,331,0.0,0.0,89,0.00,,,0.00,,2013-03-26 06:52:00,
2013-03-26 02:02:00,36.0,33.0,30.35,NNW,331,0.0,0.0,89,0.00,,,0.00,,2013-03-26 07:02:00,
2013-03-26 02:12:00,36.0,33.0,30.35,NNW,331,0.0,0.0,89,0.00,,,0.00,,2013-03-26 07:12:00,
2013-03-26 02:22:00,36.0,33.0,30.35,NNW,331,0.0,0.0,89,0.00,,,0.00,,2013-03-26 07:22:00,
2013-03-26 02:33:00,35.0,32.0,30.36,NNW,331,0.0,0.0,89,0.00,,,0.00,,2013-03-26 07:33:00,
2013-03-26 02:42:00,35.0,32.0,30.36,NNW,331,0.0,0.0,89,0.00,,,0.00,,2013-03-26 07:42:00,
2013-03-26 02:53:00,35.0,32.0,30.36,NNW,331,0.0,0.0,89,0.00,,,0.00,,2013-03-26 07:53:00,
2013-03-26 03:02:00,35.0,32.0,30.36,NNW,331,0.0,0.0,89,0.00,,,0.00,,2013-03-26 08:02:00,
2013-03-26 03:12:00,35.0,32.0,30.36,NNW,331,0.0,0.0,89,0.00,,,0.00,,2013-03-26 08:12:00,
2013-03-26 03:22:00,35.0,32.0,30.36,NNW,331,0.0,0.0,89,0.00,,,0.00,,2013-03-26 08:22:00,
2013-03-26 03:32:00,35.0,32.0,30.36,NNW,331,1.0,6.0,89,0.00,,,0.00,,2013-03-26 08:32:00,
2013-03-26 03:42:00,35.0,32.0,30.36,NNW,331,1.0,6.0,89,0.00,,,0.00,,2013-03-26 08:42:00,
2013-03-26 03:52:00,37.0,34.0,30.37,NNW,331,1.0,5.0,87,0.00,,,0.00,,2013-03-26 08:52:00,
2013-03-26 04:02:00,37.0,32.0,30.37,NNW,331,0.0,4.0,82,0.00,,,0.00,,2013-03-26 09:02:00,
2013-03-26 04:12:00,37.0,32.0,30.37,NNW,331,0.0,4.0,82,0.00,,,0.00,,2013-03-26 09:12:00,
2013-03-26 04:22:00,37.0,32.0,30.37,NNW,331,0.0,2.0,81,0.00,,,0.00,,2013-03-26 09:22:00,
2013-03-26 04:33:00,37.0,32.0,30.38,NNW,331,0.0,3.0,81,0.00,,,0.00,,2013-03-26 09:33:00,
2013-03-26 04:42:00,37.0,32.0,30.38,NNW,331,0.0,3.0,81,0.00,,,0.00,,2013-03-26 09:42:00,
2013-03-26 04:52:00,37.0,31.0,30.37,NNW,331,0.0,2.0,80,0.00,,,0.00,,2013-03-26 09:52:00,
2013-03-26 05:02:00,37.0,32.0,30.38,NNW,331,0.0,0.0,82,0.00,,,0.00,,2013-03-26 10:02:00,
2013-03-26 05:12:00,37.0,32.0,30.38,NNW,331,0.0,0.0,82,0.00,,,0.00,,2013-03-26 10:12:00,
2013-03-26 05:22:00,37.0,32.0,30.38,NNW,331,0.0,0.0,82,0.00,,,0.00,,2013-03-26 10:22:00,
2013-03-26 05:32:00,35.0,32.0,30.37,NNW,331,0.0,0.0,87,0.00,,,0.00,,2013-03-26 10:32:00,
2013-03-26 05:43:00,35.0,32.0,30.37,NNW,331,0.0,0.0,87,0.00,,,0.00,,2013-03-26 10:43:00,
2013-03-26 05:53:00,34.0,31.0,30.38,NNW,331,0.0,0.0,88,0.00,,,0.00,,2013-03-26 10:53:00,
2013-03-26 06:03:00,33.0,30.0,30.38,NNW,331,0.0,0.0,89,0.00,,,0.00,,2013-03-26 11:03:00,
2013-03-26 06:12:00,33.0,30.0,30.38,NNW,331,0.0,0.0,89,0.00,,,0.00,,2013-03-26 11:12:00,
2013-03-26 06:22:00,33.0,30.0,30.39,NNW,331,0.0,0.0,89,0.00,,,0.00,,2013-03-26 11:22:00,
2013-03-26 06:32:00,33.0,30.0,30.39,NNW,331,0.0,0.0,89,0.00,,,0.00,,2013-03-26 11:32:00,
2013-03-26 06:42:00,33.0,30.0,30.39,NNW,331,0.0,0.0,89,0.00,,,0.00,,2013-03-26 11:42:00,
2013-03-26 06:52:00,32.0,29.0,30.40,NNW,331,0.0,0.0,89,0.00,,,0.00,,2013-03-26 11:52:00,
2013-03-26 07:03:00,32.0,29.0,30.40,NNW,331,0.0,0.0,89,0.00,,,0.00,,2013-03-26 12:03:00,
2013-03-26 07:12:00,31.0,28.0,30.40,NNW,331,0.0,0.0,89,0.00,,,0.00,,2013-03-26 12:12:00,
2013-03-26 07:22:00,31.0,28.0,30.40,NNW,331,0.0,0.0,89,0.00,,,0.00,,2013-03-26 12:22:00,
2013-03-26 07:32:00,31.0,28.0,30.41,NNW,331,0.0,0.0,90,0.00,,,0.00,,2013-03-26 12:32:00,
2013-03-26 07:42:00,31.0,28.0,30.41,NNW,331,0.0,0.0,90,0.00,,,0.00,,2013-03-26 12:42:00,
2013-03-26 07:52:00,31.0,28.0,30.42,NNW,331,0.0,0.0,90,0.00,,,0.00,,2013-03-26 12:52:00,
2013-03-26 08:03:00,33.0,30.0,30.42,NNW,331,0.0,0.0,89,0.00,,,0.00,,2013-03-26 13:03:00,
2013-03-26 08:12:00,33.0,30.0,30.42,NNW,331,0.0,0.0,89,0.00,,,0.00,,2013-03-26 13:12:00,
2013-03-26 08:22:00,36.0,33.0,30.43,NNW,331,0.0,0.0,88,0.00,,,0.00,,2013-03-26 13:22:00,
2013-03-26 08:32:00,39.0,36.0,30.44,NW,318,0.0,1.0,88,0.00,,,0.00,,2013-03-26 13:32:00,
2013-03-26 08:42:00,39.0,36.0,30.44,NW,318,0.0,1.0,88,0.00,,,0.00,,2013-03-26 13:42:00,
2013-03-26 08:52:00,39.0,34.0,30.45,NW,318,0.0,1.0,81,0.00,,,0.00,,2013-03-26 13:52:00,
2013-03-26 09:02:00,41.0,35.0,30.45,NW,318,0.0,1.0,78,0.00,,,0.00,,2013-03-26 14:02:00,
2013-03-26 09:11:00,41.0,35.0,30.45,NW,318,0.0,1.0,78,0.00,,,0.00,,2013-03-26 14:11:00,
2013-03-26 09:22:00,44.0,36.0,30.46,NW,318,0.0,1.0,74,0.00,,,0.00,,2013-03-26 14:22:00,
2013-03-26 09:32:00,46.0,34.0,30.46,NNW,328,0.0,4.0,62,0.00,,,0.00,,2013-03-26 14:32:00,
2013-03-26 09:42:00,46.0,34.0,30.46,NNW,328,0.0,4.0,62,0.00,,,0.00,,2013-03-26 14:42:00,
2013-03-26 09:53:00,48.0,34.0,30.46,NNE,13,1.0,7.0,57,0.00,,,0.00,,2013-03-26 14:53:00,
2013-03-26 10:02:00,49.0,32.0,30.46,NNE,15,4.0,8.0,52,0.00,,,0.00,,2013-03-26 15:02:00,
2013-03-26 10:12:00,49.0,32.0,30.46,NNE,15,4.0,8.0,52,0.00,,,0.00,,2013-03-26 15:12:00,
2013-03-26 10:22:00,49.0,30.0,30.46,NNW,340,1.0,7.0,47,0.00,,,0.00,,2013-03-26 15:22:00,
2013-03-26 10:33:00,50.0,28.0,30.46,North,360,3.0,11.0,43,0.00,,,0.00,,2013-03-26 15:33:00,
2013-03-26 10:43:00,50.0,28.0,30.46,North,360,3.0,11.0,43,0.00,,,0.00,,2013-03-26 15:43:00,
2013-03-26 10:53:00,52.0,29.0,30.46,North,355,5.0,10.0,41,0.00,,,0.00,,2013-03-26 15:53:00,
2013-03-26 11:02:00,51.0,28.0,30.46,NW,320,5.0,12.0,41,0.00,,,0.00,,2013-03-26 16:02:00,
2013-03-26 11:12:00,51.0,28.0,30.46,NW,320,5.0,12.0,41,0.00,,,0.00,,2013-03-26 16:12:00,
2013-03-26 11:22:00,52.0,28.0,30.45,North,360,4.0,12.0,39,0.00,,,0.00,,2013-03-26 16:22:00,
2013-03-26 11:32:00,53.0,28.0,30.45,North,360,6.0,12.0,38,0.00,,,0.00,,2013-03-26 16:32:00,
2013-03-26 11:42:00,53.0,28.0,30.45,North,360,6.0,12.0,38,0.00,,,0.00,,2013-03-26 16:42:00,
2013-03-26 11:53:00,54.0,29.0,30.45,NE,34,5.0,11.0,38,0.00,,,0.00,,2013-03-26 16:53:00,
2013-03-26 12:02:00,55.0,27.0,30.44,NNW,346,8.0,14.0,34,0.00,,,0.00,,2013-03-26 17:02:00,
2013-03-26 12:12:00,55.0,27.0,30.44,NNW,346,8.0,14.0,34,0.00,,,0.00,,2013-03-26 17:12:00,
2013-03-26 12:23:00,54.0,29.0,30.44,NNE,15,4.0,14.0,38,0.00,,,0.00,,2013-03-26 17:23:00,
2013-03-26 12:32:00,56.0,29.0,30.43,NNW,342,5.0,11.0,35,0.00,,,0.00,,2013-03-26 17:32:00,
2013-03-26 12:42:00,56.0,29.0,30.43,NNW,342,5.0,11.0,35,0.00,,,0.00,,2013-03-26 17:42:00,
2013-03-26 12:53:00,56.0,29.0,30.42,North,350,6.0,11.0,36,0.00,,,0.00,,2013-03-26 17:53:00,
2013-03-26 13:02:00,57.0,32.0,30.42,North,9,3.0,9.0,39,0.00,,,0.00,,2013-03-26 18:02:00,
2013-03-26 13:12:00,57.0,32.0,30.42,North,9,3.0,9.0,39,0.00,,,0.00,,2013-03-26 18:12:00,
2013-03-26 13:23:00,57.0,30.0,30.42,NNE,25,2.0,9.0,36,0.00,,,0.00,,2013-03-26 18:23:00,
2013-03-26 13:33:00,58.0,29.0,30.41,NE,44,0.0,11.0,33,0.00,,,0.00,,2013-03-26 18:33:00,
2013-03-26 13:42:00,58.0,29.0,30.41,NE,44,0.0,11.0,33,0.00,,,0.00,,2013-03-26 18:42:00,
2013-03-26 13:53:00,58.0,29.0,30.40,NNW,328,4.0,8.0,33,0.00,,,0.00,,2013-03-26 18:53:00,
2013-03-26 14:02:00,59.0,27.0,30.39,NNW,347,6.0,12.0,29,0.00,,,0.00,,2013-03-26 19:02:00,
2013-03-26 14:12:00,59.0,27.0,30.39,NNW,347,6.0,12.0,29,0.00,,,0.00,,2013-03-26 19:12:00,
2013-03-26 14:22:00,60.0,28.0,30.38,NNW,342,4.0,10.0,30,0.00,,,0.00,,2013-03-26 19:22:00,
2013-03-26 14:32:00,59.0,28.0,30.37,NW,312,7.0,13.0,30,0.00,,,0.00,,2013-03-26 19:32:00,
2013-03-26 14:42:00,59.0,28.0,30.37,NW,312,7.0,13.0,30,0.00,,,0.00,,2013-03-26 19:42:00,
2013-03-26 14:53:00,60.0,29.0,30.36,WNW,302,5.0,12.0,31,0.00,,,0.00,,2013-03-26 19:53:00,
2013-03-26 15:02:00,60.0,29.0,30.36,WNW,294,4.0,17.0,31,0.00,,,0.00,,2013-03-26 20:02:00,
2013-03-26 15:12:00,60.0,29.0,30.36,WNW,294,4.0,17.0,31,0.00,,,0.00,,2013-03-26 20:12:00,
2013-03-26 15:22:00,61.0,28.0,30.35,West,277,3.0,11.0,28,0.00,,,0.00,,2013-03-26 20:22:00,
2013-03-26 15:32:00,62.0,29.0,30.35,NNW,348,6.0,18.0,29,0.00,,,0.00,,2013-03-26 20:32:00,
2013-03-26 15:42:00,62.0,29.0,30.35,NNW,348,6.0,18.0,29,0.00,,,0.00,,2013-03-26 20:42:00,
2013-03-26 15:52:00,61.0,29.0,30.34,NNW,335,3.0,13.0,30,0.00,,,0.00,,2013-03-26 20:52:00,
2013-03-26 16:02:00,62.0,29.0,30.34,North,9,5.0,14.0,29,0.00,,,0.00,,2013-03-26 21:02:00,
2013-03-26 16:12:00,62.0,29.0,30.34,North,9,5.0,14.0,29,0.00,,,0.00,,2013-03-26 21:12:00,
2013-03-26 16:22:00,62.0,29.0,30.33,NNE,12,4.0,9.0,28,0.00,,,0.00,,2013-03-26 21:22:00,
2013-03-26 16:32:00,62.0,29.0,30.33,NNE,12,4.0,9.0,28,0.00,,,0.00,,2013-03-26 21:32:00,
2013-03-26 16:42:00,62.0,29.0,30.33,NNE,12,4.0,9.0,28,0.00,,,0.00,,2013-03-26 21:42:00,
2013-03-26 16:52:00,62.0,29.0,30.33,NNE,12,4.0,9.0,28,0.00,,,0.00,,2013-03-26 21:52:00,
2013-03-26 17:22:00,62.0,28.0,30.32,NNE,28,7.0,10.0,27,0.00,,,0.00,,2013-03-26 22:22:00,
2013-03-26 17:33:00,62.0,28.0,30.32,NNE,28,7.0,10.0,27,0.00,,,0.00,,2013-03-26 22:33:00,
2013-03-26 17:42:00,62.0,28.0,30.32,NNE,28,7.0,10.0,27,0.00,,,0.00,,2013-03-26 22:42:00,
2013-03-26 17:52:00,62.0,28.0,30.32,NNE,28,7.0,10.0,27,0.00,,,0.00,,2013-03-26 22:52:00,
2013-03-26 18:22:00,61.0,29.0,30.32,NNW,345,2.0,10.0,29,0.00,,,0.00,,2013-03-26 23:22:00,
2013-03-26 18:32:00,60.0,28.0,30.32,North,355,2.0,11.0,29,0.00,,,0.00,,2013-03-26 23:32:00,
2013-03-26 18:43:00,60.0,28.0,30.32,North,355,2.0,11.0,29,0.00,,,0.00,,2013-03-26 23:43:00,
2013-03-26 18:53:00,59.0,28.0,30.32,NNE,19,4.0,8.0,30,0.00,,,0.00,,2013-03-26 23:53:00,
2013-03-26 19:02:00,58.0,28.0,30.32,NE,36,3.0,8.0,32,0.00,,,0.00,,2013-03-27 00:02:00,
2013-03-26 19:12:00,58.0,28.0,30.32,NE,36,3.0,8.0,32,0.00,,,0.00,,2013-03-27 00:12:00,
2013-03-26 19:22:00,57.0,30.0,30.32,NNE,25,1.0,7.0,35,0.00,,,0.00,,2013-03-27 00:22:00,
2013-03-26 19:32:00,55.0,29.0,30.32,NNE,25,1.0,5.0,37,0.00,,,0.00,,2013-03-27 00:32:00,
2013-03-26 19:42:00,55.0,29.0,30.32,NNE,25,1.0,5.0,37,0.00,,,0.00,,2013-03-27 00:42:00,
2013-03-26 19:52:00,54.0,33.0,30.32,NNE,25,0.0,0.0,44,0.00,,,0.00,,2013-03-27 00:52:00,
2013-03-26 20:02:00,52.0,34.0,30.32,NNE,25,0.0,1.0,51,0.00,,,0.00,,2013-03-27 01:02:00,
2013-03-26 20:12:00,52.0,34.0,30.32,NNE,25,0.0,1.0,51,0.00,,,0.00,,2013-03-27 01:12:00,
2013-03-26 20:22:00,50.0,33.0,30.33,NNE,25,0.0,1.0,52,0.00,,,0.00,,2013-03-27 01:22:00,
2013-03-26 20:33:00,49.0,35.0,30.33,NNE,25,0.0,0.0,59,0.00,,,0.00,,2013-03-27 01:33:00,
2013-03-26 20:42:00,49.0,35.0,30.33,NNE,25,0.0,0.0,59,0.00,,,0.00,,2013-03-27 01:42:00,
2013-03-26 20:53:00,47.0,38.0,30.33,NNE,25,0.0,0.0,71,0.00,,,0.00,,2013-03-27 01:53:00,
2013-03-26 21:02:00,45.0,38.0,30.34,NNE,25,0.0,0.0,75,0.00,,,0.00,,2013-03-27 02:02:00,
2013-03-26 21:12:00,45.0,38.0,30.34,NNE,25,0.0,0.0,75,0.00,,,0.00,,2013-03-27 02:12:00,
2013-03-26 21:22:00,44.0,39.0,30.34,NNE,25,0.0,0.0,81,0.00,,,0.00,,2013-03-27 02:22:00,
2013-03-26 21:32:00,43.0,38.0,30.34,NNE,25,0.0,0.0,82,0.00,,,0.00,,2013-03-27 02:32:00,
2013-03-26 21:42:00,43.0,38.0,30.34,NNE,25,0.0,0.0,82,0.00,,,0.00,,2013-03-27 02:42:00,
2013-03-26 21:53:00,42.0,38.0,30.35,NNE,25,0.0,0.0,84,0.00,,,0.00,,2013-03-27 02:53:00,
2013-03-26 22:02:00,41.0,37.0,30.35,NNE,25,0.0,0.0,85,0.00,,,0.00,,2013-03-27 03:02:00,
2013-03-26 22:12:00,41.0,37.0,30.35,NNE,25,0.0,0.0,85,0.00,,,0.00,,2013-03-27 03:12:00,
2013-03-26 22:22:00,40.0,36.0,30.35,NNE,25,0.0,0.0,86,0.00,,,0.00,,2013-03-27 03:22:00,
2013-03-26 22:33:00,39.0,35.0,30.36,NNE,25,0.0,0.0,87,0.00,,,0.00,,2013-03-27 03:33:00,
2013-03-26 22:42:00,39.0,35.0,30.36,NNE,25,0.0,0.0,87,0.00,,,0.00,,2013-03-27 03:42:00,
2013-03-26 22:53:00,39.0,35.0,30.36,NNE,25,0.0,0.0,87,0.00,,,0.00,,2013-03-27 03:53:00,
2013-03-26 23:02:00,38.0,35.0,30.36,NNE,25,0.0,0.0,88,0.00,,,0.00,,2013-03-27 04:02:00,
2013-03-26 23:13:00,38.0,35.0,30.36,NNE,25,0.0,0.0,88,0.00,,,0.00,,2013-03-27 04:13:00,
2013-03-26 23:23:00,38.0,35.0,30.36,NNE,25,0.0,0.0,88,0.00,,,0.00,,2013-03-27 04:23:00,
2013-03-26 23:33:00,37.0,34.0,30.36,NNE,25,0.0,0.0,88,0.00,,,0.00,,2013-03-27 04:33:00,
2013-03-26 23:42:00,37.0,34.0,30.36,NNE,25,0.0,0.0,88,0.00,,,0.00,,2013-03-27 04:42:00,
2013-03-26 23:52:00,37.0,34.0,30.36,NNE,25,0.0,0.0,88,0.00,,,0.00,,2013-03-27 04:52:00,